createdAt,value
2018-02-09T00:01:17.205Z,39.80
2018-02-09T00:03:44.662Z,47.17
2018-02-09T00:06:12.118Z,40.20
2018-02-09T00:08:39.589Z,36.27
2018-02-09T00:11:07.053Z,35.07
2018-02-09T00:13:34.514Z,38.77
2018-02-09T00:16:02.733Z,36.00
2018-02-09T00:18:30.200Z,39.17
2018-02-09T00:20:57.652Z,37.43
2018-02-09T00:23:25.109Z,36.20
2018-02-09T00:25:52.578Z,36.40
2018-02-09T00:28:20.025Z,40.23
2018-02-09T00:30:48.137Z,39.10
2018-02-09T00:33:15.602Z,39.00
2018-02-09T00:35:43.057Z,37.90
2018-02-09T00:38:10.525Z,37.30
2018-02-09T00:40:37.972Z,37.33
2018-02-09T00:43:05.434Z,34.67
2018-02-09T00:45:32.893Z,34.50
2018-02-09T00:48:01.142Z,37.63
2018-02-09T00:50:28.599Z,35.53
2018-02-09T00:52:56.079Z,34.37
2018-02-09T00:55:23.541Z,44.27
2018-02-09T00:57:51.021Z,36.57
2018-02-09T01:00:18.471Z,35.03
2018-02-09T01:02:46.705Z,39.10
2018-02-09T01:05:14.946Z,35.80
2018-02-09T01:07:42.405Z,35.23
2018-02-09T01:10:09.892Z,35.93
2018-02-09T01:12:37.366Z,35.20
2018-02-09T01:15:04.838Z,37.37
2018-02-09T01:17:33.069Z,39.10
2018-02-09T01:20:00.565Z,32.40
2018-02-09T01:22:28.026Z,34.40
2018-02-09T01:24:55.485Z,33.93
2018-02-09T01:27:23.710Z,32.20
2018-02-09T01:29:51.197Z,32.40
2018-02-09T01:32:18.661Z,32.20
2018-02-09T01:34:46.154Z,36.50
2018-02-09T01:37:13.615Z,36.60
2018-02-09T01:39:41.838Z,35.70
2018-02-09T01:42:09.301Z,37.10
2018-02-09T01:44:36.785Z,36.10
2018-02-09T01:47:05.004Z,38.53
2018-02-09T01:49:32.461Z,36.10
2018-02-09T01:51:59.926Z,33.60
2018-02-09T01:54:27.558Z,35.70
2018-02-09T01:56:55.012Z,32.87
2018-02-09T01:59:23.238Z,31.70
2018-02-09T02:01:50.699Z,33.37
2018-02-09T02:04:18.166Z,35.40
2018-02-09T02:06:45.640Z,33.90
2018-02-09T02:09:13.095Z,32.73
2018-02-09T02:11:40.557Z,37.87
2018-02-09T02:14:08.006Z,34.17
2018-02-09T02:16:35.475Z,30.97
2018-02-09T02:19:03.713Z,33.37
2018-02-09T02:21:31.946Z,38.87
2018-02-09T02:23:59.396Z,33.03
2018-02-09T02:26:26.853Z,33.60
2018-02-09T02:28:54.305Z,36.17
2018-02-09T02:31:21.766Z,31.70
2018-02-09T02:33:49.990Z,32.57
2018-02-09T02:36:17.456Z,35.47
2018-02-09T02:38:44.905Z,33.30
2018-02-09T02:41:12.366Z,34.90
2018-02-09T02:43:39.821Z,34.27
2018-02-09T02:46:07.293Z,32.70
2018-02-09T02:48:34.753Z,30.17
2018-02-09T02:51:02.209Z,32.60
2018-02-09T02:53:29.655Z,32.73
2018-02-09T02:55:57.121Z,33.33
2018-02-09T02:58:24.576Z,37.63
2018-02-09T03:00:52.045Z,39.60
2018-02-09T03:03:19.506Z,32.70
2018-02-09T03:05:46.965Z,33.07
2018-02-09T03:08:15.186Z,39.43
2018-02-09T03:10:42.645Z,30.50
2018-02-09T03:13:10.102Z,37.13
2018-02-09T03:15:37.551Z,37.63
2018-02-09T03:18:05.033Z,34.60
2018-02-09T03:20:32.472Z,35.60
2018-02-09T03:22:59.982Z,35.87
2018-02-09T03:25:27.448Z,37.73
2018-02-09T03:27:54.910Z,37.97
2018-02-09T03:30:23.121Z,32.87
2018-02-09T03:32:50.577Z,36.80
2018-02-09T03:35:18.041Z,37.30
2018-02-09T03:37:45.517Z,33.37
2018-02-09T03:40:12.993Z,31.13
2018-02-09T03:42:40.461Z,35.97
2018-02-09T03:45:08.681Z,37.10
2018-02-09T03:47:36.145Z,39.13
2018-02-09T03:50:03.598Z,32.70
2018-02-09T03:52:31.053Z,35.30
2018-02-09T03:54:58.530Z,32.53
2018-02-09T03:57:26.001Z,35.00
2018-02-09T03:59:53.453Z,34.07
2018-02-09T04:02:20.927Z,37.80
2018-02-09T04:04:48.386Z,33.80
2018-02-09T04:07:15.849Z,34.23
2018-02-09T04:09:43.304Z,31.87
2018-02-09T04:12:10.768Z,35.93
2018-02-09T04:14:38.220Z,31.10
2018-02-09T04:17:05.676Z,34.10
2018-02-09T04:19:33.142Z,32.33
2018-02-09T04:22:00.593Z,37.83
2018-02-09T04:24:28.080Z,34.83
2018-02-09T04:26:55.553Z,32.60
2018-02-09T04:29:23.037Z,33.60
2018-02-09T04:31:50.508Z,36.20
2018-02-09T04:34:17.977Z,35.30
2018-02-09T04:36:45.435Z,31.27
2018-02-09T04:39:12.880Z,31.50
2018-02-09T04:41:40.339Z,30.37
2018-02-09T04:44:07.809Z,39.50
2018-02-09T04:46:36.217Z,29.40
2018-02-09T04:49:03.668Z,36.47
2018-02-09T04:51:31.140Z,34.97
2018-02-09T04:53:58.636Z,34.87
2018-02-09T04:56:26.092Z,32.07
2018-02-09T04:58:53.549Z,33.33
2018-02-09T05:01:21.217Z,30.97
2018-02-09T05:03:48.749Z,32.10
2018-02-09T05:06:16.204Z,32.67
2018-02-09T05:08:43.685Z,33.90
2018-02-09T05:11:11.901Z,34.60
2018-02-09T05:13:40.113Z,35.13
2018-02-09T05:16:07.757Z,32.63
2018-02-09T05:18:35.237Z,35.57
2018-02-09T05:21:02.715Z,37.30
2018-02-09T05:23:30.937Z,35.87
2018-02-09T05:25:58.402Z,34.37
2018-02-09T05:28:26.636Z,38.40
2018-02-09T05:30:54.112Z,40.17
2018-02-09T05:33:28.125Z,39.87
2018-02-09T05:35:56.391Z,38.87
2018-02-09T05:38:23.851Z,42.90
2018-02-09T05:40:51.301Z,41.13
2018-02-09T05:43:18.763Z,39.40
2018-02-09T05:45:46.225Z,42.80
2018-02-09T05:48:13.679Z,44.67
2018-02-09T05:50:41.137Z,40.03
2018-02-09T05:53:08.589Z,45.50
2018-02-09T05:55:36.058Z,45.47
2018-02-09T05:58:03.510Z,49.23
2018-02-09T06:00:30.966Z,43.17
2018-02-09T06:02:58.426Z,41.00
2018-02-09T06:05:25.891Z,38.83
2018-02-09T06:07:54.125Z,44.10
2018-02-09T06:10:21.605Z,42.80
2018-02-09T06:12:49.041Z,42.00
2018-02-09T06:15:16.501Z,40.03
2018-02-09T06:17:43.957Z,41.83
2018-02-09T06:20:11.418Z,41.83
2018-02-09T06:22:38.888Z,45.87
2018-02-09T06:25:06.354Z,46.30
2018-02-09T06:27:33.809Z,46.80
2018-02-09T06:30:01.269Z,44.83
2018-02-09T06:32:28.732Z,42.20
2018-02-09T06:34:57.002Z,51.10
2018-02-09T06:37:24.461Z,48.87
2018-02-09T06:39:52.679Z,43.07
2018-02-09T06:42:20.126Z,45.73
2018-02-09T06:44:47.585Z,40.67
2018-02-09T06:47:15.077Z,45.50
2018-02-09T06:49:42.537Z,44.23
2018-02-09T06:52:09.997Z,43.60
2018-02-09T06:54:37.451Z,46.13
2018-02-09T06:57:04.940Z,43.20
2018-02-09T06:59:32.405Z,45.83
2018-02-09T07:01:59.857Z,51.27
2018-02-09T07:04:28.098Z,42.27
2018-02-09T07:06:55.554Z,46.97
2018-02-09T07:09:23.016Z,46.70
2018-02-09T07:11:51.225Z,45.30
2018-02-09T07:14:19.469Z,45.10
2018-02-09T07:16:46.924Z,39.43
2018-02-09T07:19:14.396Z,42.70
2018-02-09T07:21:41.844Z,44.90
2018-02-09T07:24:09.304Z,40.23
2018-02-09T07:26:36.765Z,40.13
2018-02-09T07:29:04.232Z,40.43
2018-02-09T07:31:31.701Z,43.60
2018-02-09T07:33:59.930Z,43.97
2018-02-09T07:36:29.301Z,42.80
2018-02-09T07:38:56.784Z,40.27
2018-02-09T07:41:24.261Z,46.07
2018-02-09T07:43:51.713Z,47.93
2018-02-09T07:46:19.253Z,41.00
2018-02-09T07:48:46.687Z,41.40
2018-02-09T07:51:15.992Z,41.10
2018-02-09T07:53:43.447Z,39.40
2018-02-09T07:56:11.681Z,42.90
2018-02-09T07:58:39.146Z,40.60
2018-02-09T08:01:07.415Z,39.93
2018-02-09T08:03:34.872Z,41.03
2018-02-09T08:06:02.340Z,37.30
2018-02-09T08:08:29.793Z,40.20
2018-02-09T08:10:57.265Z,43.87
2018-02-09T08:13:25.491Z,38.03
2018-02-09T08:15:52.992Z,38.00
2018-02-09T08:18:20.440Z,39.57
2018-02-09T08:20:47.911Z,43.67
2018-02-09T08:23:15.354Z,42.40
2018-02-09T08:25:42.817Z,38.57
2018-02-09T08:28:10.272Z,48.20
2018-02-09T08:30:37.744Z,37.03
2018-02-09T08:33:05.976Z,38.00
2018-02-09T08:35:33.439Z,40.87
2018-02-09T08:38:00.905Z,38.03
2018-02-09T08:40:28.404Z,37.90
2018-02-09T08:42:56.656Z,37.00
2018-02-09T08:45:24.118Z,35.23
2018-02-09T08:47:51.649Z,39.80
2018-02-09T08:50:19.105Z,40.00
2018-02-09T08:52:46.580Z,40.97
2018-02-09T08:55:14.040Z,38.30
2018-02-09T08:57:41.509Z,36.77
2018-02-09T09:00:08.969Z,36.77
2018-02-09T09:02:36.424Z,44.47
2018-02-09T09:05:03.880Z,37.87
2018-02-09T09:07:31.353Z,41.57
2018-02-09T09:09:59.593Z,37.60
2018-02-09T09:12:27.049Z,37.47
2018-02-09T09:14:54.504Z,36.80
2018-02-09T09:17:21.976Z,40.83
2018-02-09T09:19:49.444Z,39.50
2018-02-09T09:22:16.904Z,39.73
2018-02-09T09:24:44.370Z,34.80
2018-02-09T09:27:12.592Z,37.70
2018-02-09T09:29:40.053Z,38.00
2018-02-09T09:32:07.532Z,38.30
2018-02-09T09:34:35.017Z,40.10
2018-02-09T09:37:02.465Z,38.97
2018-02-09T09:39:29.920Z,34.13
2018-02-09T09:41:57.396Z,34.80
2018-02-09T09:44:25.636Z,38.73
2018-02-09T09:46:53.101Z,32.50
2018-02-09T09:49:20.572Z,31.13
2018-02-09T09:51:48.035Z,31.93
2018-02-09T09:54:15.496Z,34.00
2018-02-09T09:56:43.724Z,36.13
2018-02-09T09:59:11.202Z,34.17
2018-02-09T10:01:38.685Z,31.17
2018-02-09T10:04:06.912Z,36.03
2018-02-09T10:06:34.372Z,32.90
2018-02-09T10:09:01.828Z,30.80
2018-02-09T10:11:29.309Z,30.87
2018-02-09T10:13:56.789Z,30.40
2018-02-09T10:16:24.237Z,31.67
2018-02-09T10:18:51.709Z,26.73
2018-02-09T10:21:19.167Z,26.47
2018-02-09T10:23:47.392Z,26.43
2018-02-09T10:26:14.862Z,30.43
2018-02-09T10:28:43.089Z,24.87
2018-02-09T10:31:10.553Z,24.87
2018-02-09T10:33:38.014Z,28.07
2018-02-09T10:36:05.470Z,21.93
2018-02-09T10:38:32.975Z,22.60
2018-02-09T10:41:00.431Z,26.67
2018-02-09T10:43:28.660Z,28.97
2018-02-09T10:45:56.113Z,23.53
2018-02-09T10:48:23.573Z,24.27
2018-02-09T10:50:51.848Z,24.23
2018-02-09T10:53:19.329Z,23.13
2018-02-09T10:55:46.772Z,19.27
2018-02-09T10:58:14.225Z,18.10
2018-02-09T11:00:47.337Z,22.33
2018-02-09T11:03:14.809Z,19.10
2018-02-09T11:05:42.269Z,20.23
2018-02-09T11:08:09.746Z,22.00
2018-02-09T11:10:54.601Z,17.40
2018-02-09T11:13:27.608Z,18.80
2018-02-09T11:15:55.057Z,16.53
2018-02-09T11:18:22.524Z,14.97
2018-02-09T11:20:49.972Z,16.83
2018-02-09T11:23:17.437Z,13.80
2018-02-09T11:25:44.897Z,14.33
2018-02-09T11:28:12.364Z,13.93
2018-02-09T11:30:39.813Z,13.67
2018-02-09T11:33:08.044Z,10.73
2018-02-09T11:35:35.521Z,11.43
2018-02-09T11:38:03.732Z,10.70
2018-02-09T11:40:31.957Z,12.80
2018-02-09T11:42:59.440Z,9.80
2018-02-09T11:45:26.898Z,9.27
2018-02-09T11:47:54.369Z,9.13
2018-02-09T11:50:21.845Z,9.50
2018-02-09T11:52:50.069Z,9.47
2018-02-09T11:55:17.528Z,8.80
2018-02-09T11:57:44.989Z,9.37
2018-02-09T12:00:12.445Z,10.60
2018-02-09T12:02:39.912Z,8.97
2018-02-09T12:05:07.384Z,9.30
2018-02-09T12:07:34.829Z,7.83
2018-02-09T12:10:02.290Z,8.97
2018-02-09T12:12:29.747Z,8.43
2018-02-09T12:14:57.212Z,7.50
2018-02-09T12:17:24.653Z,8.10
2018-02-09T12:19:52.112Z,8.43
2018-02-09T12:22:19.596Z,9.00
2018-02-09T12:24:47.044Z,8.00
2018-02-09T12:27:15.271Z,7.70
2018-02-09T12:29:42.732Z,7.80
2018-02-09T12:32:10.203Z,9.37
2018-02-09T12:34:37.673Z,6.53
2018-02-09T12:37:05.153Z,6.37
2018-02-09T12:39:32.616Z,6.40
2018-02-09T12:42:00.834Z,6.77
2018-02-09T12:44:28.301Z,6.50
2018-02-09T12:46:55.761Z,6.07
2018-02-09T12:49:23.232Z,6.33
2018-02-09T12:51:50.696Z,6.60
2018-02-09T12:54:18.180Z,6.70
2018-02-09T12:56:46.428Z,6.03
2018-02-09T12:59:13.885Z,5.93
2018-02-09T13:01:41.341Z,5.87
2018-02-09T13:04:08.825Z,5.10
2018-02-09T13:06:37.120Z,5.43
2018-02-09T13:09:05.388Z,5.00
2018-02-09T13:11:33.609Z,5.20
2018-02-09T13:14:01.072Z,5.00
2018-02-09T13:16:29.300Z,4.77
2018-02-09T13:18:56.761Z,5.30
2018-02-09T13:21:24.204Z,4.80
2018-02-09T13:24:04.273Z,5.20
2018-02-09T13:26:31.724Z,5.00
2018-02-09T13:29:00.081Z,4.50
2018-02-09T13:31:27.532Z,4.90
2018-02-09T13:33:54.985Z,4.10
2018-02-09T13:36:34.265Z,4.17
2018-02-09T13:39:01.731Z,4.80
2018-02-09T13:41:29.288Z,4.23
2018-02-09T13:43:56.761Z,3.77
2018-02-09T13:46:24.217Z,4.23
2018-02-09T13:48:51.673Z,4.03
2018-02-09T13:51:19.132Z,4.90
2018-02-09T13:53:46.596Z,4.80
2018-02-09T13:56:14.053Z,4.47
2018-02-09T13:58:41.513Z,4.33
2018-02-09T14:01:08.959Z,3.47
2018-02-09T14:03:36.412Z,4.40
2018-02-09T14:06:03.873Z,4.23
2018-02-09T14:08:31.332Z,4.73
2018-02-09T14:10:58.784Z,4.57
2018-02-09T14:13:26.244Z,4.47
2018-02-09T14:15:53.704Z,4.50
2018-02-09T14:18:21.162Z,4.30
2018-02-09T14:20:48.628Z,4.50
2018-02-09T14:23:16.077Z,5.17
2018-02-09T14:25:43.535Z,5.40
2018-02-09T14:28:10.973Z,5.70
2018-02-09T14:30:38.432Z,5.90
2018-02-09T14:33:05.893Z,6.60
2018-02-09T14:35:33.356Z,9.30
2018-02-09T14:38:00.806Z,6.63
2018-02-09T14:40:28.268Z,6.87
2018-02-09T14:42:55.728Z,9.30
2018-02-09T14:45:23.184Z,7.70
2018-02-09T14:47:50.641Z,8.87
2018-02-09T14:50:18.084Z,8.90
2018-02-09T14:52:45.544Z,8.43
2018-02-09T14:55:13.041Z,8.87
2018-02-09T14:57:40.501Z,8.57
2018-02-09T15:00:07.953Z,9.90
2018-02-09T15:02:35.417Z,10.40
2018-02-09T15:05:02.865Z,8.83
2018-02-09T15:07:31.088Z,10.00
2018-02-09T15:09:59.292Z,9.33
2018-02-09T15:12:26.752Z,8.30
2018-02-09T15:14:54.265Z,8.53
2018-02-09T15:17:21.705Z,9.00
2018-02-09T15:19:49.153Z,9.87
2018-02-09T15:22:16.645Z,10.20
2018-02-09T15:24:44.096Z,9.77
2018-02-09T15:27:11.557Z,9.00
2018-02-09T15:29:38.997Z,9.67
2018-02-09T15:32:06.456Z,8.27
2018-02-09T15:34:34.397Z,9.30
2018-02-09T15:37:01.874Z,8.60
2018-02-09T15:39:29.340Z,9.53
2018-02-09T15:41:57.003Z,10.63
2018-02-09T15:44:25.256Z,10.60
2018-02-09T15:46:52.725Z,11.50
2018-02-09T15:49:20.188Z,14.20
2018-02-09T15:51:47.668Z,12.07
2018-02-09T15:54:15.901Z,11.77
2018-02-09T15:56:43.373Z,15.63
2018-02-09T15:59:10.830Z,12.03
2018-02-09T16:01:38.284Z,17.07
2018-02-09T16:04:06.512Z,13.10
2018-02-09T16:06:33.973Z,16.13
2018-02-09T16:09:02.197Z,16.53
2018-02-09T16:11:29.649Z,16.40
2018-02-09T16:13:57.117Z,13.23
2018-02-09T16:16:24.566Z,13.13
2018-02-09T16:18:52.032Z,15.73
2018-02-09T16:21:19.493Z,15.77
2018-02-09T16:23:46.950Z,15.37
2018-02-09T16:26:14.598Z,14.70
2018-02-09T16:28:42.192Z,17.50
2018-02-09T16:31:10.457Z,15.40
2018-02-09T16:33:37.903Z,15.87
2018-02-09T16:36:05.374Z,16.50
2018-02-09T16:38:32.887Z,18.60
2018-02-09T16:41:00.365Z,18.33
2018-02-09T16:43:27.820Z,18.30
2018-02-09T16:45:55.289Z,18.93
2018-02-09T16:48:22.750Z,18.13
2018-02-09T16:50:53.573Z,17.07
2018-02-09T16:53:21.025Z,18.30
2018-02-09T16:55:48.492Z,17.50
2018-02-09T16:58:15.945Z,18.90
2018-02-09T17:00:43.400Z,20.87
2018-02-09T17:03:10.865Z,16.60
2018-02-09T17:05:38.332Z,18.50
2018-02-09T17:08:05.785Z,17.77
2018-02-09T17:10:33.264Z,21.20
2018-02-09T17:13:01.517Z,19.73
2018-02-09T17:15:28.968Z,18.70
2018-02-09T17:17:56.449Z,16.10
2018-02-09T17:20:23.901Z,18.67
2018-02-09T17:22:51.365Z,16.43
2018-02-09T17:25:18.813Z,18.30
2018-02-09T17:27:46.278Z,18.97
2018-02-09T17:30:13.729Z,26.30
2018-02-09T17:32:41.192Z,20.50
2018-02-09T17:35:09.487Z,18.10
2018-02-09T17:37:37.009Z,24.93
2018-02-09T17:40:04.469Z,15.87
2018-02-09T17:42:31.944Z,19.93
2018-02-09T17:44:59.421Z,23.33
2018-02-09T17:47:27.653Z,24.47
2018-02-09T17:49:55.109Z,28.80
2018-02-09T17:52:22.739Z,29.50
2018-02-09T17:54:50.438Z,19.77
2018-02-09T17:57:17.906Z,21.37
2018-02-09T17:59:45.358Z,25.43
2018-02-09T18:02:12.825Z,21.93
2018-02-09T18:04:40.276Z,25.37
2018-02-09T18:07:07.741Z,25.50
2018-02-09T18:09:35.193Z,22.77
2018-02-09T18:12:02.659Z,24.27
2018-02-09T18:14:30.105Z,31.60
2018-02-09T18:16:57.572Z,27.10
2018-02-09T18:19:25.028Z,29.70
2018-02-09T18:21:52.488Z,30.33
2018-02-09T18:24:19.936Z,25.97
2018-02-09T18:26:47.404Z,26.70
2018-02-09T18:29:14.865Z,25.83
2018-02-09T18:31:42.321Z,24.73
2018-02-09T18:34:09.810Z,29.33
2018-02-09T18:36:38.025Z,29.20
2018-02-09T18:39:05.514Z,27.07
2018-02-09T18:41:33.762Z,30.70
2018-02-09T18:44:01.320Z,25.90
2018-02-09T18:46:28.768Z,28.93
2018-02-09T18:48:56.224Z,29.43
2018-02-09T18:51:23.685Z,29.83
2018-02-09T18:53:51.140Z,26.93
2018-02-09T18:56:18.613Z,28.07
2018-02-09T18:58:46.258Z,33.00
2018-02-09T19:01:13.769Z,25.17
2018-02-09T19:03:42.009Z,28.20
2018-02-09T19:06:09.512Z,34.97
2018-02-09T19:08:36.929Z,33.10
2018-02-09T19:11:04.394Z,30.30
2018-02-09T19:13:31.846Z,28.63
2018-02-09T19:15:59.349Z,33.57
2018-02-09T19:18:26.827Z,35.30
2018-02-09T19:20:54.301Z,30.80
2018-02-09T19:23:21.756Z,37.80
2018-02-09T19:25:49.221Z,46.23
2018-02-09T19:28:16.673Z,31.37
2018-02-09T19:30:44.141Z,29.27
2018-02-09T19:33:11.593Z,30.00
2018-02-09T19:35:39.812Z,38.43
2018-02-09T19:38:07.268Z,34.10
2018-02-09T19:40:35.505Z,33.30
2018-02-09T19:43:02.953Z,32.00
2018-02-09T19:45:30.466Z,36.00
2018-02-09T19:47:57.873Z,34.77
2018-02-09T19:50:26.101Z,30.47
2018-02-09T19:52:53.583Z,30.77
2018-02-09T19:55:21.074Z,32.17
2018-02-09T19:57:48.529Z,32.57
2018-02-09T20:00:17.708Z,32.17
2018-02-09T20:02:45.168Z,29.50
2018-02-09T20:05:12.608Z,32.30
2018-02-09T20:07:40.068Z,29.60
2018-02-09T20:10:07.553Z,36.37
2018-02-09T20:12:35.020Z,31.00
2018-02-09T20:15:03.256Z,29.33
2018-02-09T20:17:30.724Z,32.43
2018-02-09T20:19:58.173Z,31.50
2018-02-09T20:22:25.676Z,28.43
2018-02-09T20:24:53.116Z,33.47
2018-02-09T20:27:20.573Z,36.00
2018-02-09T20:29:48.033Z,31.83
2018-02-09T20:32:15.484Z,32.77
2018-02-09T20:34:42.949Z,29.83
2018-02-09T20:37:10.415Z,35.00
2018-02-09T20:39:37.893Z,32.03
2018-02-09T20:42:06.181Z,33.53
2018-02-09T20:44:34.409Z,30.00
2018-02-09T20:47:02.651Z,30.70
2018-02-09T20:49:30.120Z,34.50
2018-02-09T20:51:57.578Z,37.57
2018-02-09T20:54:25.053Z,28.50
2018-02-09T20:56:52.543Z,30.17
2018-02-09T20:59:19.994Z,32.13
2018-02-09T21:01:47.444Z,31.60
2018-02-09T21:04:14.921Z,37.00
2018-02-09T21:06:42.362Z,30.93
2018-02-09T21:09:09.820Z,33.70
2018-02-09T21:11:37.269Z,29.20
2018-02-09T21:14:04.750Z,34.77
2018-02-09T21:16:32.189Z,33.80
2018-02-09T21:18:59.645Z,38.57
2018-02-09T21:21:27.097Z,31.03
2018-02-09T21:23:54.605Z,30.73
2018-02-09T21:26:22.013Z,31.23
2018-02-09T21:28:49.493Z,33.73
2018-02-09T21:31:16.960Z,32.73
2018-02-09T21:33:45.200Z,35.10
2018-02-09T21:36:13.420Z,30.63
2018-02-09T21:38:41.644Z,31.57
2018-02-09T21:41:09.877Z,30.50
2018-02-09T21:43:37.333Z,39.03
2018-02-09T21:46:04.784Z,32.67
2018-02-09T21:48:32.270Z,38.00
2018-02-09T21:50:59.704Z,29.07
2018-02-09T21:53:27.166Z,32.00
2018-02-09T21:55:54.733Z,34.53
2018-02-09T21:58:22.213Z,38.33
2018-02-09T22:00:49.664Z,42.50
2018-02-09T22:03:17.158Z,30.57
2018-02-09T22:05:44.612Z,29.00
2018-02-09T22:08:12.083Z,33.97
2018-02-09T22:10:39.544Z,32.13
2018-02-09T22:13:07.772Z,30.77
2018-02-09T22:15:35.226Z,38.80
2018-02-09T22:18:02.682Z,35.07
2018-02-09T22:20:30.144Z,38.67
2018-02-09T22:22:57.605Z,31.40
2018-02-09T22:25:25.078Z,30.23
2018-02-09T22:27:54.629Z,31.90
2018-02-09T22:30:24.769Z,28.97
2018-02-09T22:32:52.229Z,30.57
2018-02-09T22:35:19.698Z,31.60
2018-02-09T22:37:49.072Z,28.53
2018-02-09T22:40:17.304Z,41.37
2018-02-09T22:42:44.778Z,33.67
2018-02-09T22:45:12.237Z,31.63
2018-02-09T22:47:40.461Z,32.03
2018-02-09T22:50:07.921Z,31.53
2018-02-09T22:52:35.382Z,31.37
2018-02-09T22:55:02.880Z,32.27
2018-02-09T22:57:30.328Z,31.10
2018-02-09T22:59:57.793Z,32.37
2018-02-09T23:02:25.242Z,31.13
2018-02-09T23:04:52.717Z,29.50
2018-02-09T23:07:20.946Z,30.47
2018-02-09T23:09:48.401Z,40.30
2018-02-09T23:12:15.869Z,29.17
2018-02-09T23:14:43.729Z,32.17
2018-02-09T23:17:11.173Z,29.97
2018-02-09T23:19:38.641Z,32.00
2018-02-09T23:22:06.093Z,30.80
2018-02-09T23:24:33.576Z,30.47
2018-02-09T23:27:01.043Z,35.53
2018-02-09T23:29:28.513Z,38.07
2018-02-09T23:31:56.088Z,31.10
2018-02-09T23:34:23.709Z,35.10
2018-02-09T23:36:51.167Z,38.83
2018-02-09T23:39:18.621Z,32.07
2018-02-09T23:41:46.076Z,32.00
2018-02-09T23:44:13.528Z,31.27
2018-02-09T23:46:40.989Z,31.37
2018-02-09T23:49:08.460Z,31.07
2018-02-09T23:51:35.913Z,27.80
2018-02-09T23:54:03.368Z,30.30
2018-02-09T23:56:30.825Z,29.60
2018-02-09T23:58:58.286Z,35.33
